Airfield :
LOGIN :

Register | Disclaimer

   EN    FR    IT 

 










Legend :    VFR   Marginal VFR   IFR   Intensive IFR   Very Intensive IFR
Visi :
Ceiling :
>= 8 km
>= 3000ft
5 to 8 km
1000 to 3000 ft
1500m to 5 km
500 to 1000 ft
800 to 1500m
200 to 500 ft
< 800m
< 200 ft
Symbols :   Thunderstorms  Fog  Heavy snow  Heavy precipitations  Wind > 20 kt
SIGMETs :     Misc.  Thunderstorms  Icing  Turbulence  Mountain Waves  Volcanic Ashes







- Airport Elevation : 37 ft


EHVL - Vlieland Heliport

CURRENT METAR :
  • 182325Z AUTO 29010KT 9999 OVC240 16/14 Q1011 BLU

EXPIRED METARs :
  • 182255Z AUTO 29010KT 9999 FEW080 16/13 Q1011 BLU
  • 182225Z AUTO 29011KT 9999 FEW081 BKN260 16/14 Q1011 BLU
  • 182158Z AUTO 30012KT 9999 FEW014 BKN082 OVC260 16/15 Q1010 BLU
  • 182155Z AUTO 30012KT 9999 BKN014 OVC083 16/15 Q1010 GRN
  • 182134Z AUTO 29013KT 9999 SCT007 SCT009 BKN011 16/16 Q1010 GRN
  • 182126Z AUTO 29013KT 9999 FEW006 BKN007 BKN009 16/16 Q1010 GRN
  • 182056Z AUTO 29008KT 9999 FEW004 OVC067 16/16 Q1010 BLU
  • 182055Z AUTO 29008KT 9999 SCT004 SCT049 OVC067 16/16 Q1010 YLO
  • 182041Z AUTO 30009KT 9999 SCT005 OVC060 16/16 Q1010 YLO
  • 182025Z AUTO 30010KT 9999 SCT004 BKN005 BKN044 16/16 Q1010 YLO

Expired Forecast.
No reported NOTAMs for that airfield.



MET'MAP, your aeronautical weather chart ! - Copyright ORBIFLY December 2007 - Disclaimer

ORBIFLY MET'MAP TEAM :

Programming & Development : Alexandra Zaïnal
Concept & Development : Baudouin d'Aumeries
Co-Development & Prog : Marc-Olivier Méhu
Technical & hardware support : Manuel Goepfert

Contact : metmap@orbifly.com




SOURCES & CREDITS :

   NOAA